Time;durP1;ratioP1;P1;durP2;ratioP2;P2;SDS_P1;SDS_P2;PMS_P1;PMS_P2;Temp;Humidity;BMP_temperature;BMP_pressure;BME280_temperature;BME280_humidity;BME280_pressure;Samples;Min_cycle;Max_cycle;Signal;HPM_P1;HPM_P2
2022/04/30 00:00:14;;;;;;;7.05;4.00;;;;;;;;;;5000968;28;20582;-71
2022/04/30 00:02:41;;;;;;;9.68;4.45;;;;;;;;;;4998775;28;20076;-71
2022/04/30 00:05:11;;;;;;;8.43;4.50;;;;;;;;;;5002889;28;20054;-71
2022/04/30 00:07:38;;;;;;;10.40;4.00;;;;;;;;;;5000084;28;20134;-71
2022/04/30 00:10:06;;;;;;;5.90;3.13;;;;;;;;;;5001488;28;20124;-71
2022/04/30 00:12:33;;;;;;;9.25;3.75;;;;;;;;;;5000691;28;20111;-71
2022/04/30 00:15:01;;;;;;;8.10;3.72;;;;;;;;;;5003980;28;20057;-71
2022/04/30 00:17:28;;;;;;;7.97;3.47;;;;;;;;;;5002634;28;20049;-71
2022/04/30 00:19:55;;;;;;;5.13;3.30;;;;;;;;;;5001801;28;20046;-71
2022/04/30 00:22:23;;;;;;;4.82;3.10;;;;;;;;;;4992521;28;20620;-71
2022/04/30 00:24:51;;;;;;;7.93;3.17;;;;;;;;;;5001067;28;20062;-71
2022/04/30 00:27:20;;;;;;;7.95;3.22;;;;;;;;;;5003974;28;20501;-71
2022/04/30 00:29:47;;;;;;;7.90;3.13;;;;;;;;;;4999497;28;20061;-71
2022/04/30 00:32:15;;;;;;;9.07;3.42;;;;;;;;;;4999935;28;20228;-70
2022/04/30 00:34:43;;;;;;;5.38;2.50;;;;;;;;;;5001330;28;20522;-70
2022/04/30 00:37:10;;;;;;;7.90;3.15;;;;;;;;;;5001616;28;20046;-71
2022/04/30 00:39:39;;;;;;;7.47;2.85;;;;;;;;;;5005642;28;20042;-71
2022/04/30 00:42:06;;;;;;;9.52;2.97;;;;;;;;;;5000415;28;20050;-71
2022/04/30 00:44:33;;;;;;;6.10;2.70;;;;;;;;;;5002501;28;20240;-71
2022/04/30 00:47:00;;;;;;;10.13;3.10;;;;;;;;;;5002441;28;20077;-71
2022/04/30 00:49:28;;;;;;;9.82;2.95;;;;;;;;;;4996908;28;20046;-71
2022/04/30 00:51:56;;;;;;;13.00;2.97;;;;;;;;;;4995506;28;20085;-71
2022/04/30 00:54:26;;;;;;;8.52;2.90;;;;;;;;;;5002148;28;20061;-70
2022/04/30 00:56:57;;;;;;;7.03;2.60;;;;;;;;;;5002763;28;20416;-71
2022/04/30 00:59:24;;;;;;;6.35;2.72;;;;;;;;;;4997073;28;20069;-70
2022/04/30 01:01:52;;;;;;;10.25;3.20;;;;;;;;;;4998218;28;20081;-68
2022/04/30 01:04:19;;;;;;;8.15;2.85;;;;;;;;;;4998117;28;20053;-68
2022/04/30 01:06:51;;;;;;;6.00;2.83;;;;;;;;;;5000820;28;20096;-68
2022/04/30 01:09:20;;;;;;;6.20;2.90;;;;;;;;;;4999798;28;20054;-68
2022/04/30 01:11:48;;;;;;;10.93;2.92;;;;;;;;;;5002221;28;20064;-68
2022/04/30 01:14:17;;;;;;;9.07;3.20;;;;;;;;;;5007138;28;20160;-68
2022/04/30 01:16:45;;;;;;;10.70;3.08;;;;;;;;;;4999461;28;20050;-68
2022/04/30 01:19:18;;;;;;;9.73;2.75;;;;;;;;;;5006551;28;20049;-69
2022/04/30 01:21:47;;;;;;;8.80;3.03;;;;;;;;;;4994328;28;20057;-69
2022/04/30 01:24:16;;;;;;;11.88;2.92;;;;;;;;;;4997979;28;20057;-69
2022/04/30 01:26:43;;;;;;;9.25;2.40;;;;;;;;;;5002605;28;20046;-69
2022/04/30 01:29:10;;;;;;;6.07;2.80;;;;;;;;;;4992810;28;20054;-69
2022/04/30 01:37:25;;;;;;;9.30;2.97;;;;;;;;;;5001974;28;20061;-69
2022/04/30 01:39:57;;;;;;;8.15;2.70;;;;;;;;;;4999460;28;20126;-69
2022/04/30 01:42:25;;;;;;;8.88;2.80;;;;;;;;;;4998777;28;20050;-69
2022/04/30 01:44:53;;;;;;;5.85;2.72;;;;;;;;;;4999942;28;20409;-69
2022/04/30 01:47:21;;;;;;;9.60;2.95;;;;;;;;;;4999965;28;20046;-69
2022/04/30 01:49:48;;;;;;;9.25;2.90;;;;;;;;;;5002430;28;20057;-69
2022/04/30 01:52:15;;;;;;;6.90;2.78;;;;;;;;;;5002719;28;20052;-69
2022/04/30 01:54:43;;;;;;;6.50;2.78;;;;;;;;;;4992788;28;20524;-69
2022/04/30 01:57:12;;;;;;;6.68;2.70;;;;;;;;;;4996032;28;20153;-69
2022/04/30 01:59:40;;;;;;;7.18;2.90;;;;;;;;;;4998524;28;20514;-69
2022/04/30 02:02:07;;;;;;;7.43;2.75;;;;;;;;;;5000750;28;20084;-69
2022/04/30 02:04:35;;;;;;;7.55;2.78;;;;;;;;;;4996997;28;20497;-69
2022/04/30 02:07:03;;;;;;;6.97;3.40;;;;;;;;;;4998934;28;20045;-69
2022/04/30 02:09:31;;;;;;;7.05;2.92;;;;;;;;;;4994983;28;20053;-69
2022/04/30 02:11:59;;;;;;;9.40;2.70;;;;;;;;;;4999249;28;20054;-69
2022/04/30 02:14:30;;;;;;;8.60;2.75;;;;;;;;;;5001247;28;20191;-69
2022/04/30 02:16:57;;;;;;;6.05;2.80;;;;;;;;;;5000617;28;20461;-69
2022/04/30 02:19:27;;;;;;;6.20;2.60;;;;;;;;;;5001506;28;20559;-69
2022/04/30 02:21:56;;;;;;;4.57;2.90;;;;;;;;;;5004764;28;20555;-69
2022/04/30 02:24:23;;;;;;;8.43;2.95;;;;;;;;;;5005605;28;20049;-69
2022/04/30 02:26:50;;;;;;;9.88;3.10;;;;;;;;;;5001854;28;20442;-69
2022/04/30 02:29:17;;;;;;;7.03;3.08;;;;;;;;;;4997188;28;20456;-69
2022/04/30 02:31:47;;;;;;;7.88;3.20;;;;;;;;;;5005106;28;20058;-69
2022/04/30 02:34:14;;;;;;;9.40;2.90;;;;;;;;;;4997791;28;20539;-69
2022/04/30 02:36:41;;;;;;;7.90;3.05;;;;;;;;;;5004541;28;20077;-69
2022/04/30 02:39:09;;;;;;;8.07;3.15;;;;;;;;;;4994686;28;20126;-69
2022/04/30 02:41:36;;;;;;;11.65;3.13;;;;;;;;;;4997698;28;20046;-69
2022/04/30 02:44:04;;;;;;;9.05;2.95;;;;;;;;;;4999040;28;20050;-69
2022/04/30 02:46:31;;;;;;;7.18;3.08;;;;;;;;;;5003824;28;20590;-69
2022/04/30 02:49:00;;;;;;;10.00;2.85;;;;;;;;;;5003458;28;20481;-69
2022/04/30 02:51:27;;;;;;;9.55;3.65;;;;;;;;;;5003505;28;20050;-69
2022/04/30 02:53:54;;;;;;;6.60;2.83;;;;;;;;;;5005262;28;20049;-69
2022/04/30 02:56:21;;;;;;;9.15;2.97;;;;;;;;;;5001498;28;20857;-69
2022/04/30 03:01:33;;;;;;;9.63;3.10;;;;;;;;;;4999375;28;20054;-69
2022/04/30 03:04:03;;;;;;;12.82;3.22;;;;;;;;;;5000226;28;20047;-69
2022/04/30 03:06:33;;;;;;;5.60;3.00;;;;;;;;;;4998672;28;20077;-69
2022/04/30 03:09:00;;;;;;;9.15;3.70;;;;;;;;;;4998960;28;20062;-69
2022/04/30 03:11:27;;;;;;;9.25;3.28;;;;;;;;;;4996071;28;20054;-69
2022/04/30 03:13:54;;;;;;;10.77;3.53;;;;;;;;;;4996930;28;20104;-69
2022/04/30 03:21:53;;;;;;;10.02;4.18;;;;;;;;;;5003079;28;20056;-69
2022/04/30 03:24:20;;;;;;;7.60;3.50;;;;;;;;;;5001534;28;20088;-69
2022/04/30 03:26:48;;;;;;;8.73;3.30;;;;;;;;;;5005142;28;20057;-69
2022/04/30 03:29:16;;;;;;;9.18;3.72;;;;;;;;;;5000494;28;20058;-69
2022/04/30 03:31:43;;;;;;;10.50;4.15;;;;;;;;;;5002497;28;20056;-69
2022/04/30 03:34:14;;;;;;;11.35;3.58;;;;;;;;;;5000416;28;20132;-69
2022/04/30 03:36:41;;;;;;;10.50;4.05;;;;;;;;;;5006135;28;20128;-69
2022/04/30 03:39:09;;;;;;;9.18;3.63;;;;;;;;;;4999335;28;20046;-69
2022/04/30 03:41:36;;;;;;;9.57;3.65;;;;;;;;;;5005611;28;20434;-69
2022/04/30 03:44:03;;;;;;;7.30;3.60;;;;;;;;;;5003988;28;20050;-69
2022/04/30 03:46:31;;;;;;;9.50;3.65;;;;;;;;;;4998083;28;20087;-69
2022/04/30 03:49:00;;;;;;;7.88;3.80;;;;;;;;;;5003017;28;20125;-69
2022/04/30 03:51:28;;;;;;;7.95;4.18;;;;;;;;;;5002266;28;20054;-69
2022/04/30 03:53:56;;;;;;;11.85;4.40;;;;;;;;;;4998174;28;20198;-69
2022/04/30 03:56:24;;;;;;;9.85;3.30;;;;;;;;;;4998398;28;20056;-69
2022/04/30 03:58:51;;;;;;;9.27;4.20;;;;;;;;;;4998833;28;20093;-69
2022/04/30 04:01:19;;;;;;;11.80;4.10;;;;;;;;;;4999431;28;20049;-69
2022/04/30 04:03:48;;;;;;;11.10;4.00;;;;;;;;;;4991176;28;20149;-69
2022/04/30 04:06:16;;;;;;;12.27;4.38;;;;;;;;;;4997942;28;20038;-69
2022/04/30 04:08:49;;;;;;;6.88;3.80;;;;;;;;;;5001127;28;20049;-69
2022/04/30 04:11:17;;;;;;;9.30;4.00;;;;;;;;;;5001820;28;20061;-69
2022/04/30 04:19:14;;;;;;;12.52;5.05;;;;;;;;;;5002068;28;20104;-69
2022/04/30 04:21:41;;;;;;;11.85;5.38;;;;;;;;;;4994127;28;20053;-69
2022/04/30 04:27:09;;;;;;;12.60;5.85;;;;;;;;;;4939356;28;20051;-69
2022/04/30 04:29:36;;;;;;;13.73;5.70;;;;;;;;;;4922524;29;20062;-69
2022/04/30 04:32:04;;;;;;;12.02;5.70;;;;;;;;;;4956445;28;20061;-69
2022/04/30 04:34:31;;;;;;;11.52;5.70;;;;;;;;;;4997601;28;20059;-69
2022/04/30 04:36:58;;;;;;;10.05;5.45;;;;;;;;;;5007690;28;20046;-69
2022/04/30 04:39:27;;;;;;;13.07;5.47;;;;;;;;;;4996426;28;20476;-69
2022/04/30 04:41:54;;;;;;;8.65;4.70;;;;;;;;;;5001357;28;20062;-69
2022/04/30 04:44:21;;;;;;;12.02;5.20;;;;;;;;;;5001206;28;20921;-69
2022/04/30 04:46:49;;;;;;;12.70;4.88;;;;;;;;;;5000217;28;20519;-69
2022/04/30 04:49:16;;;;;;;11.05;4.78;;;;;;;;;;5000718;28;20057;-69
2022/04/30 04:51:44;;;;;;;7.25;4.72;;;;;;;;;;5004048;28;20485;-69
2022/04/30 04:54:11;;;;;;;10.50;4.75;;;;;;;;;;5006557;28;20052;-69
2022/04/30 04:56:42;;;;;;;9.30;4.70;;;;;;;;;;5000761;28;20050;-69
2022/04/30 04:59:09;;;;;;;11.48;5.30;;;;;;;;;;4995676;28;20050;-69
2022/04/30 05:01:36;;;;;;;13.13;5.25;;;;;;;;;;4997462;28;20082;-69
2022/04/30 05:04:04;;;;;;;10.10;5.28;;;;;;;;;;4992968;28;20054;-68
2022/04/30 05:06:31;;;;;;;10.20;5.60;;;;;;;;;;4997133;28;20050;-68
2022/04/30 05:08:58;;;;;;;11.27;5.20;;;;;;;;;;4992696;28;20062;-69
2022/04/30 05:11:26;;;;;;;11.23;5.47;;;;;;;;;;4989907;28;20054;-69
2022/04/30 05:13:54;;;;;;;7.05;4.88;;;;;;;;;;4995339;28;20064;-69
2022/04/30 05:16:21;;;;;;;7.97;4.70;;;;;;;;;;4993994;28;20642;-68
2022/04/30 05:18:49;;;;;;;8.20;4.60;;;;;;;;;;4991219;28;20047;-68
2022/04/30 05:21:16;;;;;;;10.07;4.88;;;;;;;;;;4995995;28;20084;-68
2022/04/30 05:23:43;;;;;;;10.02;4.68;;;;;;;;;;4996892;28;20049;-69
2022/04/30 05:26:10;;;;;;;10.95;5.20;;;;;;;;;;4993508;28;20046;-69
2022/04/30 05:28:37;;;;;;;11.80;5.25;;;;;;;;;;4999199;28;20053;-69
2022/04/30 05:31:08;;;;;;;12.20;4.82;;;;;;;;;;5001174;28;20046;-69
2022/04/30 05:33:35;;;;;;;10.75;5.25;;;;;;;;;;5001067;28;20062;-69
2022/04/30 05:36:02;;;;;;;12.20;6.20;;;;;;;;;;5001102;28;20054;-69
2022/04/30 05:38:30;;;;;;;12.52;5.90;;;;;;;;;;5001927;28;20452;-69
2022/04/30 05:40:57;;;;;;;12.50;6.10;;;;;;;;;;5000943;28;20204;-69
2022/04/30 05:43:24;;;;;;;13.32;6.70;;;;;;;;;;5003152;28;20053;-69
2022/04/30 05:45:51;;;;;;;14.90;6.57;;;;;;;;;;5001471;28;20054;-69
2022/04/30 05:48:20;;;;;;;13.65;7.13;;;;;;;;;;5002651;28;20053;-69
2022/04/30 05:50:47;;;;;;;14.20;6.82;;;;;;;;;;5002319;28;20516;-69
2022/04/30 05:53:15;;;;;;;11.43;7.18;;;;;;;;;;5005297;28;20049;-69
2022/04/30 05:55:42;;;;;;;10.90;6.90;;;;;;;;;;5005533;28;20545;-68
2022/04/30 05:58:09;;;;;;;14.30;7.45;;;;;;;;;;5008145;28;20620;-68
2022/04/30 06:00:36;;;;;;;13.63;7.32;;;;;;;;;;5007171;28;20053;-69
2022/04/30 06:03:03;;;;;;;13.20;7.53;;;;;;;;;;4997326;28;20066;-69
2022/04/30 06:05:32;;;;;;;15.48;7.40;;;;;;;;;;4999252;28;20135;-68
2022/04/30 06:07:59;;;;;;;19.17;7.72;;;;;;;;;;4999250;28;20080;-69
2022/04/30 06:10:26;;;;;;;16.17;7.30;;;;;;;;;;5000227;28;20046;-68
2022/04/30 06:12:54;;;;;;;12.30;6.82;;;;;;;;;;4994663;28;20050;-68
2022/04/30 06:15:21;;;;;;;13.25;6.95;;;;;;;;;;5005330;28;20075;-69
2022/04/30 06:17:48;;;;;;;13.48;6.93;;;;;;;;;;5006050;28;20053;-69
2022/04/30 06:20:15;;;;;;;13.30;7.25;;;;;;;;;;5006616;28;20764;-69
2022/04/30 06:22:44;;;;;;;11.52;7.22;;;;;;;;;;5002731;28;20056;-69
2022/04/30 06:25:11;;;;;;;12.48;7.38;;;;;;;;;;5003266;28;20108;-68
2022/04/30 06:27:39;;;;;;;15.60;7.18;;;;;;;;;;5004486;28;20064;-70
2022/04/30 06:30:07;;;;;;;13.80;6.32;;;;;;;;;;5007192;28;20050;-68
2022/04/30 06:32:34;;;;;;;16.98;6.63;;;;;;;;;;5006747;28;20148;-68
2022/04/30 06:35:02;;;;;;;12.95;7.35;;;;;;;;;;4999096;28;20081;-69
2022/04/30 06:37:29;;;;;;;12.85;7.38;;;;;;;;;;4997048;28;20058;-69
2022/04/30 06:39:57;;;;;;;11.82;7.38;;;;;;;;;;4998045;28;20058;-69
2022/04/30 06:42:25;;;;;;;13.02;7.13;;;;;;;;;;5004660;28;20054;-69
2022/04/30 06:44:52;;;;;;;13.18;7.57;;;;;;;;;;4999024;28;20053;-69
2022/04/30 06:47:21;;;;;;;14.55;6.82;;;;;;;;;;4998021;28;20058;-69
2022/04/30 06:49:50;;;;;;;13.55;7.22;;;;;;;;;;4996144;28;20145;-69
2022/04/30 06:52:18;;;;;;;11.55;5.80;;;;;;;;;;5000093;28;20108;-69
2022/04/30 06:57:31;;;;;;;13.07;5.65;;;;;;;;;;4997300;28;20050;-69
2022/04/30 06:59:59;;;;;;;12.88;7.40;;;;;;;;;;4999093;28;20519;-70
2022/04/30 07:02:30;;;;;;;13.30;5.88;;;;;;;;;;5000356;28;20176;-70
2022/04/30 07:04:59;;;;;;;10.50;5.93;;;;;;;;;;5004388;28;20140;-70
2022/04/30 07:07:26;;;;;;;10.43;5.70;;;;;;;;;;5003843;28;20068;-70
2022/04/30 07:09:53;;;;;;;12.77;6.15;;;;;;;;;;5002640;28;20703;-69
2022/04/30 07:12:21;;;;;;;13.65;5.70;;;;;;;;;;5009167;28;20723;-70
2022/04/30 07:14:50;;;;;;;12.20;5.30;;;;;;;;;;5010269;28;20400;-70
2022/04/30 07:17:17;;;;;;;15.00;6.03;;;;;;;;;;5002824;28;20878;-70
2022/04/30 07:19:44;;;;;;;7.20;4.97;;;;;;;;;;5007233;28;20053;-69
2022/04/30 07:22:13;;;;;;;8.20;4.88;;;;;;;;;;5002781;28;20972;-69
2022/04/30 07:24:40;;;;;;;10.70;4.15;;;;;;;;;;5008362;28;20448;-70
2022/04/30 07:27:08;;;;;;;9.95;5.70;;;;;;;;;;5004625;28;20062;-70
2022/04/30 07:29:37;;;;;;;8.85;4.65;;;;;;;;;;5007438;28;20054;-70
2022/04/30 07:32:07;;;;;;;12.77;4.60;;;;;;;;;;5007328;28;20049;-70
2022/04/30 07:34:35;;;;;;;10.10;4.90;;;;;;;;;;5003963;28;20108;-70
2022/04/30 07:37:03;;;;;;;12.70;5.63;;;;;;;;;;5002953;28;20056;-70
2022/04/30 07:39:30;;;;;;;12.00;5.45;;;;;;;;;;5004459;28;20100;-69
2022/04/30 07:41:57;;;;;;;12.60;5.47;;;;;;;;;;5000772;28;20046;-69
2022/04/30 07:44:26;;;;;;;14.23;6.30;;;;;;;;;;5004673;28;20116;-69
2022/04/30 07:46:53;;;;;;;13.95;6.10;;;;;;;;;;5002575;28;20060;-70
2022/04/30 07:49:22;;;;;;;12.02;5.72;;;;;;;;;;5004098;28;20133;-69
2022/04/30 07:51:55;;;;;;;12.98;5.85;;;;;;;;;;5001696;28;20842;-69
2022/04/30 07:54:23;;;;;;;18.95;5.95;;;;;;;;;;5007130;28;20058;-69
2022/04/30 07:56:52;;;;;;;12.20;6.00;;;;;;;;;;5005888;28;20556;-69
2022/04/30 07:59:20;;;;;;;15.85;7.20;;;;;;;;;;5004497;28;20429;-70
2022/04/30 08:01:48;;;;;;;11.85;6.35;;;;;;;;;;5003119;28;20493;-70
2022/04/30 08:04:15;;;;;;;10.02;7.00;;;;;;;;;;4995827;28;20096;-70
2022/04/30 08:06:44;;;;;;;13.57;6.60;;;;;;;;;;4998160;28;20049;-70
2022/04/30 08:09:11;;;;;;;14.75;7.30;;;;;;;;;;4992980;28;20058;-69
2022/04/30 08:11:38;;;;;;;16.63;8.20;;;;;;;;;;4994626;28;20073;-70
2022/04/30 08:14:05;;;;;;;14.95;8.73;;;;;;;;;;4998090;28;20060;-69
2022/04/30 08:16:33;;;;;;;16.75;7.53;;;;;;;;;;4997007;28;20160;-69
2022/04/30 08:19:00;;;;;;;15.25;8.05;;;;;;;;;;4996411;28;20076;-69
2022/04/30 08:21:27;;;;;;;15.15;7.15;;;;;;;;;;4998943;28;20058;-73
2022/04/30 08:23:56;;;;;;;12.10;7.25;;;;;;;;;;4997030;28;20058;-69
2022/04/30 08:26:23;;;;;;;13.48;6.90;;;;;;;;;;5002978;28;20054;-69
2022/04/30 08:28:50;;;;;;;15.82;6.57;;;;;;;;;;5000214;28;20061;-69
2022/04/30 08:31:18;;;;;;;9.68;6.35;;;;;;;;;;5005419;28;20077;-69
2022/04/30 08:33:45;;;;;;;12.35;8.30;;;;;;;;;;5005084;28;20085;-69
2022/04/30 08:36:14;;;;;;;12.98;7.78;;;;;;;;;;5005211;28;20377;-70
2022/04/30 08:38:41;;;;;;;12.52;7.45;;;;;;;;;;4997671;28;20054;-70
2022/04/30 08:41:11;;;;;;;12.77;8.07;;;;;;;;;;4996006;28;20057;-70
2022/04/30 08:43:40;;;;;;;16.33;8.73;;;;;;;;;;4996704;28;20467;-70
2022/04/30 08:46:07;;;;;;;20.15;9.18;;;;;;;;;;4994686;28;20525;-70
2022/04/30 08:48:35;;;;;;;17.23;9.27;;;;;;;;;;4997822;28;20054;-69
2022/04/30 08:51:03;;;;;;;17.20;10.05;;;;;;;;;;5000139;28;20112;-69
2022/04/30 08:53:30;;;;;;;14.73;8.48;;;;;;;;;;5002827;28;20046;-70
2022/04/30 08:55:58;;;;;;;16.88;10.43;;;;;;;;;;5000239;28;20057;-69
2022/04/30 08:58:26;;;;;;;18.95;7.80;;;;;;;;;;5000503;28;20493;-70
2022/04/30 09:00:54;;;;;;;13.80;8.18;;;;;;;;;;4997507;28;20057;-69
2022/04/30 09:03:21;;;;;;;14.57;7.80;;;;;;;;;;4998609;28;20053;-69
2022/04/30 09:05:49;;;;;;;15.27;8.85;;;;;;;;;;5003634;28;20046;-69
2022/04/30 09:08:17;;;;;;;16.95;8.25;;;;;;;;;;5001991;28;20063;-69
2022/04/30 09:10:44;;;;;;;14.52;8.82;;;;;;;;;;5000795;28;20131;-70
2022/04/30 09:13:13;;;;;;;12.45;8.25;;;;;;;;;;5000903;28;20327;-70
2022/04/30 09:15:44;;;;;;;14.20;9.32;;;;;;;;;;5001918;28;20050;-69
2022/04/30 09:18:11;;;;;;;16.48;9.13;;;;;;;;;;5000130;28;20072;-69
2022/04/30 09:20:42;;;;;;;15.18;9.07;;;;;;;;;;5005436;28;20056;-70
2022/04/30 09:23:09;;;;;;;12.60;7.78;;;;;;;;;;5002401;28;20518;-70
2022/04/30 09:25:37;;;;;;;16.17;7.45;;;;;;;;;;5004002;28;20056;-70
2022/04/30 09:28:04;;;;;;;13.40;7.53;;;;;;;;;;5005108;28;20105;-69
2022/04/30 09:30:33;;;;;;;10.90;7.18;;;;;;;;;;5004635;28;20500;-69
2022/04/30 09:33:03;;;;;;;11.43;7.18;;;;;;;;;;4999722;28;20092;-70
2022/04/30 09:38:15;;;;;;;9.57;5.90;;;;;;;;;;5001822;28;20050;-70
2022/04/30 09:40:52;;;;;;;9.35;5.10;;;;;;;;;;5004504;28;20057;-69
2022/04/30 09:43:20;;;;;;;9.88;5.57;;;;;;;;;;5002567;28;20129;-70
2022/04/30 09:45:47;;;;;;;9.57;5.82;;;;;;;;;;5003658;28;20061;-70
2022/04/30 09:53:58;;;;;;;11.32;5.70;;;;;;;;;;4964039;28;20142;-70
2022/04/30 09:56:31;;;;;;;11.27;6.10;;;;;;;;;;5003852;28;20057;-69
2022/04/30 09:58:58;;;;;;;11.05;6.05;;;;;;;;;;5005517;28;20053;-69
2022/04/30 10:01:27;;;;;;;14.15;8.02;;;;;;;;;;5000475;28;20054;-69
2022/04/30 10:03:57;;;;;;;18.67;9.52;;;;;;;;;;5003853;28;20104;-70
2022/04/30 10:06:24;;;;;;;14.55;7.45;;;;;;;;;;4997260;28;20061;-69
2022/04/30 10:08:52;;;;;;;14.05;6.80;;;;;;;;;;4995122;28;20124;-70
2022/04/30 10:11:26;;;;;;;12.25;6.40;;;;;;;;;;5000949;28;20981;-70
2022/04/30 10:14:00;;;;;;;14.70;7.28;;;;;;;;;;5000851;28;20135;-70
2022/04/30 10:16:29;;;;;;;10.88;6.38;;;;;;;;;;5004134;28;20045;-70
2022/04/30 10:19:08;;;;;;;14.68;6.93;;;;;;;;;;5003589;28;20583;-70
2022/04/30 10:21:36;;;;;;;12.60;6.50;;;;;;;;;;5001084;28;20463;-70
2022/04/30 10:24:03;;;;;;;11.93;6.20;;;;;;;;;;5005077;28;20062;-70
2022/04/30 10:26:31;;;;;;;12.40;6.55;;;;;;;;;;5003201;28;20050;-70
2022/04/30 10:29:01;;;;;;;12.93;6.25;;;;;;;;;;5003200;28;20049;-70
2022/04/30 10:31:29;;;;;;;11.32;6.50;;;;;;;;;;5004760;28;20096;-70
2022/04/30 10:33:56;;;;;;;9.02;6.10;;;;;;;;;;5003774;28;20072;-70
2022/04/30 10:36:35;;;;;;;11.13;6.53;;;;;;;;;;5007498;28;20049;-70
2022/04/30 10:39:04;;;;;;;10.05;6.53;;;;;;;;;;5006278;28;20054;-70
2022/04/30 10:41:42;;;;;;;11.43;6.40;;;;;;;;;;5003064;28;20057;-70
2022/04/30 10:44:09;;;;;;;10.80;5.90;;;;;;;;;;5001418;28;20410;-69
2022/04/30 10:46:37;;;;;;;9.57;5.10;;;;;;;;;;5006000;28;20364;-69
2022/04/30 10:49:06;;;;;;;7.82;5.03;;;;;;;;;;5002028;28;20042;-69
2022/04/30 10:51:37;;;;;;;12.20;5.63;;;;;;;;;;5005386;28;20089;-69
2022/04/30 10:54:08;;;;;;;12.65;5.32;;;;;;;;;;5002678;28;20046;-69
2022/04/30 10:56:35;;;;;;;10.95;5.03;;;;;;;;;;5004841;28;20519;-70
2022/04/30 10:59:03;;;;;;;10.40;4.85;;;;;;;;;;5003805;28;20128;-70
2022/04/30 11:01:30;;;;;;;9.70;4.90;;;;;;;;;;5007756;28;20064;-70
2022/04/30 11:03:57;;;;;;;9.75;5.53;;;;;;;;;;5001013;28;20065;-70
2022/04/30 11:06:25;;;;;;;8.98;5.32;;;;;;;;;;5002924;28;20053;-70
2022/04/30 11:09:00;;;;;;;7.63;5.50;;;;;;;;;;4997947;28;20073;-72
2022/04/30 11:11:28;;;;;;;9.63;5.32;;;;;;;;;;4998273;28;20116;-69
2022/04/30 11:14:00;;;;;;;7.63;5.90;;;;;;;;;;4995839;28;20037;-69
2022/04/30 11:16:31;;;;;;;10.15;5.45;;;;;;;;;;4999165;28;20050;-69
2022/04/30 11:18:59;;;;;;;8.85;5.30;;;;;;;;;;5000742;28;20045;-70
2022/04/30 11:21:30;;;;;;;7.97;5.10;;;;;;;;;;5001983;28;20049;-70
2022/04/30 11:23:58;;;;;;;8.02;5.30;;;;;;;;;;5000459;28;20060;-69
2022/04/30 11:26:27;;;;;;;7.88;5.07;;;;;;;;;;5002704;28;20057;-69
2022/04/30 11:28:54;;;;;;;7.75;4.93;;;;;;;;;;4999860;28;20052;-69
2022/04/30 11:31:22;;;;;;;10.63;5.35;;;;;;;;;;5002057;28;20701;-69
2022/04/30 11:33:49;;;;;;;10.00;5.78;;;;;;;;;;5000473;28;20054;-69
2022/04/30 11:36:17;;;;;;;9.30;5.78;;;;;;;;;;4997905;28;20089;-69
2022/04/30 11:38:55;;;;;;;10.65;6.40;;;;;;;;;;5001035;28;20049;-69
2022/04/30 11:41:23;;;;;;;9.88;6.20;;;;;;;;;;4996466;28;20076;-69
2022/04/30 11:44:01;;;;;;;10.90;7.00;;;;;;;;;;5006480;28;20117;-69
2022/04/30 11:46:28;;;;;;;13.25;7.35;;;;;;;;;;5005961;28;20057;-70
2022/04/30 11:48:55;;;;;;;12.65;6.68;;;;;;;;;;5006680;28;20061;-69
2022/04/30 11:51:23;;;;;;;11.15;6.30;;;;;;;;;;5001629;28;20057;-69
2022/04/30 11:53:50;;;;;;;7.80;5.97;;;;;;;;;;5008378;28;20050;-70
2022/04/30 11:56:18;;;;;;;12.27;5.90;;;;;;;;;;5008431;28;20053;-69
2022/04/30 11:58:45;;;;;;;11.07;6.03;;;;;;;;;;5005720;28;20049;-70
2022/04/30 12:01:24;;;;;;;10.57;5.78;;;;;;;;;;5006663;28;20706;-69
2022/04/30 12:03:55;;;;;;;11.15;6.18;;;;;;;;;;5005482;28;20064;-69
2022/04/30 12:06:24;;;;;;;11.13;6.38;;;;;;;;;;5007428;28;20053;-69
2022/04/30 12:08:51;;;;;;;10.43;5.82;;;;;;;;;;5007724;28;20836;-69
2022/04/30 12:11:18;;;;;;;9.65;5.80;;;;;;;;;;5007718;28;20062;-70
2022/04/30 12:13:57;;;;;;;8.63;5.07;;;;;;;;;;5008709;28;20053;-70
2022/04/30 12:16:25;;;;;;;8.40;5.40;;;;;;;;;;5005920;28;20050;-70
2022/04/30 12:24:46;;;;;;;10.38;4.68;;;;;;;;;;5005678;28;20091;-69
2022/04/30 12:27:21;;;;;;;9.13;5.05;;;;;;;;;;5005292;28;20049;-70
2022/04/30 12:29:49;;;;;;;6.93;5.10;;;;;;;;;;5006148;28;20212;-70
2022/04/30 12:32:21;;;;;;;9.30;5.20;;;;;;;;;;5006254;28;20048;-70
2022/04/30 12:34:52;;;;;;;7.50;4.68;;;;;;;;;;5004205;28;20051;-70
2022/04/30 12:37:29;;;;;;;7.65;4.45;;;;;;;;;;5004043;28;20116;-70
2022/04/30 12:39:57;;;;;;;9.07;5.15;;;;;;;;;;5003164;28;20108;-69
2022/04/30 12:42:24;;;;;;;9.10;4.70;;;;;;;;;;5003896;28;20129;-70
2022/04/30 12:44:52;;;;;;;8.95;4.10;;;;;;;;;;5004316;28;20117;-70
2022/04/30 12:47:20;;;;;;;15.60;5.03;;;;;;;;;;5005534;28;20060;-70
2022/04/30 12:49:48;;;;;;;7.78;3.65;;;;;;;;;;5006282;28;20085;-70
2022/04/30 12:52:15;;;;;;;7.00;3.63;;;;;;;;;;5002241;28;20104;-69
2022/04/30 12:54:43;;;;;;;6.63;3.70;;;;;;;;;;5000691;28;20104;-70
2022/04/30 12:57:11;;;;;;;7.00;4.47;;;;;;;;;;5005052;28;20142;-70
2022/04/30 12:59:38;;;;;;;7.07;3.60;;;;;;;;;;5006893;28;20053;-70
2022/04/30 13:02:07;;;;;;;6.38;4.00;;;;;;;;;;5007324;28;20074;-70
2022/04/30 13:04:36;;;;;;;9.23;4.07;;;;;;;;;;5007334;28;20090;-70
2022/04/30 13:07:04;;;;;;;8.68;3.83;;;;;;;;;;5006283;28;20050;-70
2022/04/30 13:15:01;;;;;;;8.40;3.70;;;;;;;;;;5007066;28;20140;-70
2022/04/30 13:17:29;;;;;;;5.97;3.13;;;;;;;;;;5002164;28;20108;-70
2022/04/30 13:19:58;;;;;;;9.02;3.38;;;;;;;;;;5006804;28;20125;-70
2022/04/30 13:22:25;;;;;;;6.00;3.30;;;;;;;;;;5006612;28;20496;-71
2022/04/30 13:24:52;;;;;;;6.25;3.15;;;;;;;;;;5000327;28;20558;-70
2022/04/30 13:27:19;;;;;;;7.07;3.53;;;;;;;;;;5005792;28;20053;-70
2022/04/30 13:29:46;;;;;;;7.45;3.80;;;;;;;;;;5000474;28;20766;-70
2022/04/30 13:32:13;;;;;;;6.90;3.85;;;;;;;;;;5006509;28;20046;-70
2022/04/30 13:34:41;;;;;;;5.72;3.50;;;;;;;;;;5003300;28;20049;-70
2022/04/30 13:37:09;;;;;;;5.63;3.58;;;;;;;;;;5006306;28;20054;-70
2022/04/30 13:39:37;;;;;;;9.80;3.40;;;;;;;;;;5006747;28;20064;-70
2022/04/30 13:42:05;;;;;;;19.45;9.32;;;;;;;;;;5004839;28;20069;-70
2022/04/30 13:44:32;;;;;;;11.85;6.53;;;;;;;;;;5004091;28;20152;-70
2022/04/30 13:46:59;;;;;;;6.80;3.33;;;;;;;;;;5004135;28;20058;-70
2022/04/30 13:49:27;;;;;;;6.35;3.13;;;;;;;;;;5001788;28;20062;-70
2022/04/30 13:51:54;;;;;;;5.45;3.25;;;;;;;;;;5006016;28;20056;-70
2022/04/30 13:54:23;;;;;;;8.23;3.08;;;;;;;;;;5004227;28;20050;-70
2022/04/30 13:56:50;;;;;;;7.13;3.35;;;;;;;;;;5005422;28;20061;-70
2022/04/30 13:59:19;;;;;;;6.45;2.88;;;;;;;;;;5005986;28;20057;-69
2022/04/30 14:01:46;;;;;;;5.93;3.05;;;;;;;;;;5004069;28;20064;-69
2022/04/30 14:04:14;;;;;;;14.93;3.33;;;;;;;;;;5005743;28;20493;-69
2022/04/30 14:06:41;;;;;;;10.73;3.45;;;;;;;;;;5005666;28;20057;-69
2022/04/30 14:09:08;;;;;;;6.63;3.08;;;;;;;;;;5004486;28;20058;-70
2022/04/30 14:11:37;;;;;;;4.53;2.92;;;;;;;;;;5007089;28;20086;-70
2022/04/30 14:16:49;;;;;;;7.72;3.28;;;;;;;;;;5008616;28;20068;-70
2022/04/30 14:19:16;;;;;;;3.70;2.65;;;;;;;;;;5005676;28;20069;-70
2022/04/30 14:21:43;;;;;;;8.10;3.30;;;;;;;;;;5006572;28;20481;-70
2022/04/30 14:24:10;;;;;;;10.23;3.90;;;;;;;;;;5009065;28;20065;-70
2022/04/30 14:26:39;;;;;;;6.97;3.60;;;;;;;;;;5007166;28;20050;-70
2022/04/30 14:29:11;;;;;;;6.25;3.83;;;;;;;;;;5008593;28;20413;-69
2022/04/30 14:31:39;;;;;;;8.18;4.28;;;;;;;;;;5003324;28;20054;-69
2022/04/30 14:34:06;;;;;;;9.32;3.70;;;;;;;;;;5005708;28;20045;-69
2022/04/30 14:36:33;;;;;;;7.95;3.90;;;;;;;;;;5007314;28;20560;-70
2022/04/30 14:39:01;;;;;;;8.73;4.05;;;;;;;;;;5009080;28;20499;-69
2022/04/30 14:41:28;;;;;;;7.13;3.65;;;;;;;;;;5009143;28;20116;-70
2022/04/30 14:43:57;;;;;;;8.82;3.92;;;;;;;;;;5003868;28;20054;-70
2022/04/30 14:46:24;;;;;;;7.40;3.67;;;;;;;;;;5007223;28;20058;-69
2022/04/30 14:48:51;;;;;;;7.60;3.70;;;;;;;;;;5002386;28;20076;-70
2022/04/30 14:51:18;;;;;;;10.05;3.75;;;;;;;;;;5009798;28;20053;-69
2022/04/30 14:53:45;;;;;;;6.82;3.20;;;;;;;;;;5007308;28;20057;-69
2022/04/30 14:56:13;;;;;;;6.85;3.42;;;;;;;;;;5007403;28;20163;-70
2022/04/30 14:58:40;;;;;;;10.60;4.15;;;;;;;;;;5009183;28;20050;-70
2022/04/30 15:01:09;;;;;;;8.55;3.88;;;;;;;;;;5008430;28;20066;-70
2022/04/30 15:03:36;;;;;;;6.90;3.63;;;;;;;;;;5009547;28;20050;-70
2022/04/30 15:06:03;;;;;;;7.00;4.18;;;;;;;;;;5005846;28;20053;-69
2022/04/30 15:08:30;;;;;;;7.25;4.32;;;;;;;;;;5005036;28;20050;-69
2022/04/30 15:10:58;;;;;;;7.95;4.40;;;;;;;;;;5004950;28;20073;-69
2022/04/30 15:13:25;;;;;;;7.43;3.95;;;;;;;;;;5013008;28;20069;-69
2022/04/30 15:15:53;;;;;;;9.00;4.43;;;;;;;;;;5011330;28;20062;-69
2022/04/30 15:18:22;;;;;;;7.63;4.10;;;;;;;;;;5007953;28;20065;-70
2022/04/30 15:20:49;;;;;;;7.63;4.07;;;;;;;;;;5007517;28;20099;-69
2022/04/30 15:23:18;;;;;;;10.63;4.15;;;;;;;;;;5007346;28;20065;-70
2022/04/30 15:25:45;;;;;;;9.45;4.22;;;;;;;;;;5005539;28;20124;-70
2022/04/30 15:28:13;;;;;;;6.65;3.50;;;;;;;;;;5008653;28;20053;-71